Data for 07/28/2014

Time Sea-Level Adjusted Pressure Absolute Pressure Temperature Relative Humidity Dew Point   
(mb) (inHg) (mb) (inHg) (C) (F) (%) (C) (F)
00:05 1025 30.27 855 25.25 20.9 69.6 29 2.2 36
00:10 1025 30.27 855 25.25 20.8 69.4 29 2.3 36.1
00:15 1026 30.3 855 25.25 20.7 69.2 29 2.4 36.3
00:20 1026 30.3 855 25.25 20.5 68.9 30 2.3 36.2
00:25 1026 30.3 855 25.25 20.5 68.9 30 2.3 36.1
00:30 1026 30.3 855 25.25 20.5 68.8 30 2.5 36.4
00:35 1025 30.27 855 25.25 20.3 68.5 30 2.4 36.2
00:40 1025 30.27 855 25.25 20.3 68.5 31 2.5 36.5
00:45 1025 30.27 855 25.25 20 68.1 31 2.4 36.3
00:50 1026 30.3 855 25.25 20 68 31 2.4 36.4
00:55 1025 30.27 855 25.25 20 68 31 2.5 36.4
01:00 1025 30.27 855 25.25 19.9 67.9 31 2.5 36.5
01:05 1025 30.27 855 25.25 19.9 67.8 31 2.5 36.6
01:10 1025 30.27 855 25.25 19.8 67.7 31 2.5 36.5
01:15 1025 30.27 855 25.25 19.7 67.5 32 2.6 36.7
01:20 1025 30.27 855 25.25 19.5 67.1 32 2.5 36.5
01:25 1025 30.27 855 25.25 19.5 67 32 2.6 36.6
01:30 1025 30.27 855 25.25 19.5 67 32 2.6 36.6
01:35 1025 30.27 855 25.25 19.5 67.1 32 2.5 36.5
01:40 1025 30.27 855 25.25 19.6 67.2 32 2.5 36.4
01:45 1025 30.27 855 25.25 19.7 67.4 32 2.5 36.5
01:50 1025 30.27 855 25.25 19.6 67.3 32 2.6 36.7
01:55 1025 30.27 855 25.25 19.5 67.1 32 2.6 36.7
02:00 1025 30.27 855 25.25 19.4 67 32 2.5 36.6
02:05 1025 30.27 855 25.25 19.4 67 32 2.7 36.8
02:10 1025 30.27 855 25.25 19.3 66.8 33 2.6 36.7
02:15 1025 30.27 855 25.25 19.2 66.5 33 2.6 36.6
02:20 1025 30.27 855 25.25 19.1 66.4 33 2.6 36.7
02:25 1025 30.27 855 25.25 19 66.2 33 2.6 36.8
02:30 1025 30.27 854 25.22 19 66.1 33 2.5 36.5
02:35 1025 30.27 855 25.25 19.1 66.4 33 2.5 36.5
02:40 1025 30.27 855 25.25 19.1 66.4 33 2.5 36.5
02:45 1025 30.27 855 25.25 19.1 66.4 33 2.5 36.5
02:50 1026 30.3 855 25.25 19.1 66.4 33 2.6 36.7
02:55 1026 30.3 855 25.25 19.1 66.3 33 2.6 36.6
03:00 1026 30.3 855 25.25 19.1 66.3 33 2.5 36.6
03:05 1026 30.3 855 25.25 19.1 66.3 33 2.5 36.6
03:10 1026 30.3 855 25.25 19 66.2 33 2.6 36.6
03:15 1026 30.3 855 25.25 19 66.1 33 2.5 36.5
03:20 1026 30.3 855 25.25 18.9 66 33 2.6 36.6
03:25 1026 30.3 855 25.25 18.8 65.8 34 2.6 36.6
03:30 1026 30.3 855 25.25 18.7 65.7 34 2.6 36.6
03:35 1026 30.3 855 25.25 18.7 65.6 34 2.5 36.6
03:40 1026 30.3 855 25.25 18.7 65.6 34 2.5 36.5
03:45 1026 30.3 855 25.25 18.7 65.6 34 2.6 36.6
03:50 1026 30.3 855 25.25 18.6 65.4 34 2.6 36.6
03:55 1026 30.3 855 25.25 18.5 65.2 34 2.5 36.5
04:00 1026 30.3 855 25.25 18.6 65.4 34 2.5 36.5
04:05 1026 30.3 855 25.25 18.5 65.3 34 2.7 36.8
04:10 1026 30.3 855 25.25 18.4 65 35 2.7 36.9
04:15 1026 30.3 855 25.25 18.2 64.8 35 2.7 36.9
04:20 1026 30.3 855 25.25 18.2 64.7 35 2.8 37
04:25 1026 30.3 855 25.25 18.2 64.7 35 2.6 36.7
04:30 1026 30.3 855 25.25 18.2 64.8 35 2.7 36.8
04:35 1026 30.3 855 25.25 18.2 64.7 35 2.7 36.8
04:40 1026 30.3 855 25.25 18.4 65.1 34 2.4 36.2
04:45 1026 30.3 855 25.25 18.5 65.2 34 2.6 36.6
04:50 1026 30.3 855 25.25 18.4 65.1 35 2.6 36.8
04:55 1026 30.3 855 25.25 18.4 65.1 34 2.6 36.6
05:00 1026 30.3 855 25.25 18.3 65 34 2.5 36.5
05:05 1026 30.3 855 25.25 18.4 65.1 34 2.5 36.5
05:10 1026 30.3 855 25.25 18.3 64.9 35 2.6 36.8
05:15 1026 30.3 855 25.25 18.2 64.8 35 2.5 36.5
05:20 1026 30.3 855 25.25 18.3 64.9 35 2.8 37.1
05:25 1026 30.3 855 25.25 18.2 64.7 35 2.6 36.7
05:30 1026 30.3 855 25.25 18.2 64.7 35 2.7 36.9
05:35 1026 30.3 855 25.25 18.2 64.8 35 2.7 36.9
05:40 1026 30.3 855 25.25 18.2 64.8 36 2.9 37.2
05:45 1026 30.3 855 25.25 18.2 64.8 36 2.9 37.2
05:50 1026 30.3 855 25.25 18.2 64.7 36 2.8 37.1
05:55 1026 30.3 855 25.25 18.3 64.9 36 3 37.3
06:00 1026 30.3 855 25.25 18.4 65 35 2.9 37.3
06:05 1026 30.3 855 25.25 18.5 65.2 35 2.8 37.1
06:10 1026 30.3 855 25.25 18.5 65.3 35 2.9 37.2
06:15 1026 30.3 855 25.25 18.6 65.4 35 2.9 37.3
06:20 1026 30.3 855 25.25 18.7 65.6 34 2.7 36.9
06:25 1026 30.3 855 25.25 18.8 65.8 35 3 37.4
06:30 1026 30.3 855 25.25 18.8 65.8 35 2.9 37.3
06:35 1026 30.3 855 25.25 19 66.2 34 2.9 37.2
06:40 1026 30.3 855 25.25 19.1 66.3 34 2.9 37.2
06:45 1026 30.3 855 25.25 19.2 66.6 34 3 37.5
06:50 1026 30.3 855 25.25 19.1 66.4 35 3.3 38
06:55 1026 30.3 855 25.25 19 66.1 35 3.2 37.7
07:00 1026 30.3 855 25.25 18.9 66 34 3 37.4
07:05 1026 30.3 855 25.25 18.9 66 35 3.1 37.6
07:10 1026 30.3 855 25.25 18.9 66 35 3.2 37.8
07:15 1026 30.3 855 25.25 18.9 66 35 3.3 37.9
07:20 1026 30.3 856 25.28 19.1 66.3 35 3.4 38.2
07:25 1026 30.3 855 25.25 19.6 67.4 33 3.2 37.7
07:30 1026 30.3 855 25.25 19.9 67.8 33 3.3 38
07:35 1026 30.3 855 25.25 19.9 67.8 33 3.4 38.1
07:40 1026 30.3 855 25.25 20 68 33 3.4 38.1
07:45 1026 30.3 855 25.25 20.1 68.2 33 3.5 38.3
07:50 1026 30.3 855 25.25 20.1 68.2 33 3.4 38.2
07:55 1026 30.3 855 25.25 20.3 68.6 32 3.1 37.5
08:00 1026 30.3 855 25.25 20.3 68.5 32 3.4 38.2
08:05 1026 30.3 855 25.25 20.5 68.9 32 3.5 38.3
08:10 1026 30.3 855 25.25 21 69.8 31 3.4 38.1
08:15 1026 30.3 856 25.28 21.4 70.4 31 3.9 39
08:20 1026 30.3 856 25.28 21.9 71.5 30 3.8 38.8
08:25 1026 30.3 855 25.25 21.8 71.2 31 4 39.3
08:30 1026 30.3 855 25.25 21.8 71.2 31 4 39.2
08:35 1026 30.3 855 25.25 21.9 71.5 31 4.4 40
08:40 1026 30.3 855 25.25 21.8 71.3 34 5.4 41.7
08:45 1026 30.3 855 25.25 21.3 70.3 36 5.6 42.2
08:50 1026 30.3 855 25.25 20.8 69.5 33 4.3 39.7
08:55 1026 30.3 856 25.28 21.4 70.5 34 5.1 41.1
09:00 1027 30.33 856 25.28 22.1 71.7 32 4.9 40.8
09:05 1027 30.33 856 25.28 22.6 72.7 30 4.4 39.9
09:10 1026 30.3 856 25.28 23.2 73.8 29 4.6 40.4
09:15 1026 30.3 856 25.28 23.9 75 29 4.8 40.7
09:20 1026 30.3 855 25.25 22.9 73.2 30 4.5 40.2
09:25 1026 30.3 855 25.25 22.2 72 31 4.3 39.7
09:30 1026 30.3 855 25.25 21.7 71.1 31 4.1 39.4
09:35 1026 30.3 855 25.25 22.7 72.8 30 4.2 39.6
09:40 1026 30.3 855 25.25 23.9 75.1 26 3.6 38.5
09:45 1026 30.3 855 25.25 24.4 75.8 27 4.4 40
09:50 1026 30.3 855 25.25 24.8 76.7 26 4 39.3
09:55 1026 30.3 855 25.25 24.9 76.8 26 4.5 40.1
10:00 1026 30.3 855 25.25 24.2 75.5 27 4.1 39.3
10:05 1026 30.3 855 25.25 24.6 76.2 27 4.6 40.2
10:10 1026 30.3 855 25.25 24.5 76.2 26 4 39.2
10:15 1026 30.3 855 25.25 24.9 76.9 27 4.8 40.7
10:20 1025 30.27 855 25.25 25.3 77.5 25 4.3 39.7
10:25 1025 30.27 855 25.25 25.4 77.7 26 4.8 40.7
10:30 1025 30.27 855 25.25 25.5 78 22 2.7 36.8
10:35 1025 30.27 855 25.25 25.9 78.7 22 3 37.4
10:40 1025 30.27 855 25.25 26.3 79.3 22 3.2 37.7
10:45 1025 30.27 855 25.25 26.8 80.2 23 4 39.2
10:50 1025 30.27 855 25.25 26.6 79.9 21 3 37.3
10:55 1025 30.27 855 25.25 26.6 80 21 2.7 36.8
11:00 1025 30.27 854 25.22 26.6 79.8 21 2.8 37
11:05 1025 30.27 854 25.22 26.3 79.3 21 2.8 37
11:10 1025 30.27 854 25.22 26.6 80 21 3 37.4
11:15 1025 30.27 854 25.22 27 80.5 21 3.3 37.9
11:20 1025 30.27 854 25.22 27.3 81.2 20 2.7 36.9
11:25 1025 30.27 854 25.22 27.6 81.6 25 5.9 42.6
11:30 1025 30.27 854 25.22 26.6 79.9 26 5.7 42.3
11:35 1025 30.27 854 25.22 27.1 80.8 22 4 39.1
11:40 1025 30.27 854 25.22 27.5 81.5 24 5.3 41.6
11:45 1025 30.27 854 25.22 27.2 80.9 24 4.9 40.9
11:50 1025 30.27 854 25.22 28.2 82.8 23 5.5 42
11:55 1025 30.27 854 25.22 28.2 82.7 25 6.4 43.6
12:00 1025 30.27 854 25.22 28.6 83.5 23 6 42.8
12:05 1025 30.27 854 25.22 28.3 82.9 24 6.2 43.1
12:10 1025 30.27 854 25.22 28 82.4 24 5.7 42.2
12:15 1025 30.27 854 25.22 28.9 84 23 5.8 42.4
12:20 1025 30.27 854 25.22 28.8 83.9 24 6.4 43.5
12:25 1025 30.27 854 25.22 28.2 82.7 24 6.2 43.2
12:30 1025 30.27 854 25.22 28.5 83.2 24 6.4 43.5
12:35 1025 30.27 854 25.22 28.4 83 25 6.8 44.2
12:40 1025 30.27 854 25.22 28.1 82.6 26 6.9 44.4
12:45 1025 30.27 854 25.22 28.1 82.5 26 6.9 44.5
12:50 1025 30.27 854 25.22 27.8 82 25 6.5 43.7
12:55 1025 30.27 854 25.22 27.5 81.5 26 6.5 43.7
13:00 1025 30.27 854 25.22 27.3 81.1 26 6.1 43
13:05 1025 30.27 854 25.22 27.2 80.9 25 5.7 42.2
13:10 1025 30.27 854 25.22 27.4 81.3 26 6.4 43.6
13:15 1025 30.27 854 25.22 27.5 81.4 26 6.3 43.3
13:20 1025 30.27 854 25.22 27.6 81.6 26 6.4 43.5
13:25 1025 30.27 854 25.22 27.7 81.8 27 7.1 44.8
13:30 1025 30.27 854 25.22 27.5 81.4 27 7 44.5
13:35 1025 30.27 854 25.22 27.7 81.8 25 6.3 43.3
13:40 1025 30.27 854 25.22 27 80.5 27 6.5 43.7
13:45 1025 30.27 854 25.22 27.4 81.3 26 6.6 43.9
13:50 1025 30.27 854 25.22 27.4 81.4 27 7.1 44.8
13:55 1025 30.27 854 25.22 27.2 80.9 26 6.6 43.8
14:00 1025 30.27 854 25.22 27.1 80.8 25 5.8 42.5
14:05 1025 30.27 854 25.22 27.7 81.9 25 6 42.7
14:10 1025 30.27 854 25.22 27.7 81.8 25 6.3 43.3
14:15 1025 30.27 855 25.25 27.8 82.1 26 6.8 44.2
14:20 1025 30.27 854 25.22 26.7 80.1 30 7.9 46.2
14:25 1025 30.27 854 25.22 26.3 79.3 28 6.8 44.2
14:30 1025 30.27 854 25.22 26.7 80.1 28 7.2 44.9
14:35 1025 30.27 854 25.22 26.8 80.2 28 7.1 44.8
14:40 1025 30.27 854 25.22 27.2 81 27 7.1 44.7
14:45 1025 30.27 854 25.22 27.8 82.1 25 6.3 43.3
14:50 1025 30.27 854 25.22 28.2 82.7 26 7 44.6
14:55 1025 30.27 854 25.22 27.9 82.2 31 9.4 48.9
15:00 1025 30.27 854 25.22 27 80.6 30 8.1 46.6
15:05 1025 30.27 854 25.22 27.1 80.8 28 7.4 45.2
15:10 1025 30.27 854 25.22 27.3 81.2 27 6.9 44.4
15:15 1025 30.27 854 25.22 27.8 82 27 7.2 44.9
15:20 1025 30.27 854 25.22 27.9 82.3 27 7.4 45.2
15:25 1025 30.27 854 25.22 27.6 81.6 26 6.8 44.3
15:30 1025 30.27 854 25.22 27.4 81.3 26 6.8 44.2
15:35 1025 30.27 854 25.22 27.4 81.2 26 6.3 43.4
15:40 1025 30.27 854 25.22 27.7 81.8 27 7.2 44.9
15:45 1025 30.27 854 25.22 28.2 82.7 27 7.5 45.4
15:50 1025 30.27 854 25.22 28.4 83.2 26 7.2 45
15:55 1025 30.27 854 25.22 28.6 83.5 23 5.9 42.6
16:00 1025 30.27 854 25.22 28.6 83.5 25 6.8 44.2
16:05 1025 30.27 854 25.22 28.3 82.9 24 6.2 43.2
16:10 1025 30.27 854 25.22 28.2 82.7 26 7.4 45.3
16:15 1025 30.27 854 25.22 28.3 82.9 24 5.9 42.6
16:20 1025 30.27 854 25.22 28.3 83 26 7.3 45.1
16:25 1025 30.27 854 25.22 28.2 82.8 24 6.3 43.3
16:30 1025 30.27 854 25.22 27.9 82.1 21 3.8 38.8
16:35 1024 30.24 854 25.22 27.9 82.2 24 5.7 42.3
16:40 1024 30.24 854 25.22 27.6 81.6 22 4.2 39.6
16:45 1024 30.24 854 25.22 27.7 81.8 22 4.6 40.3
16:50 1024 30.24 854 25.22 27.8 82.1 21 3.6 38.5
16:55 1024 30.24 854 25.22 27.7 81.8 23 4.8 40.6
17:00 1024 30.24 854 25.22 27.5 81.5 23 4.9 40.9
17:05 1024 30.24 854 25.22 27.7 81.9 21 4 39.3
17:10 1024 30.24 853 25.19 28 82.4 17 1.1 34
17:15 1024 30.24 853 25.19 28.2 82.7 20 3.1 37.6
17:20 1024 30.24 853 25.19 27.6 81.7 21 3.9 39.1
17:25 1024 30.24 853 25.19 27.7 81.8 18 1.2 34.2
17:30 1024 30.24 853 25.19 27.6 81.6 18 1.3 34.4
17:35 1024 30.24 853 25.19 27.6 81.7 20 2.9 37.2
17:40 1024 30.24 853 25.19 27.8 82 16 0.1 32.3
17:45 1024 30.24 853 25.19 28.2 82.7 15 -0.4 31.3
17:50 1024 30.24 853 25.19 28.3 83 17 1.4 34.6
17:55 1024 30.24 853 25.19 28.2 82.7 15 -0.3 31.5
18:00 1024 30.24 853 25.19 28.3 82.9 18 1.8 35.2
18:05 1024 30.24 853 25.19 27.8 82 19 2.4 36.4
18:10 1024 30.24 853 25.19 27.3 81.2 19 2.1 35.8
18:15 1024 30.24 853 25.19 27.4 81.2 20 2.5 36.5
18:20 1024 30.24 853 25.19 27.4 81.3 20 2.7 36.9
18:25 1024 30.24 853 25.19 27.1 80.8 21 3.4 38.1
18:30 1024 30.24 853 25.19 26.9 80.4 21 3.3 38
18:35 1024 30.24 853 25.19 26.7 80.1 22 3.4 38.1
18:40 1024 30.24 853 25.19 26.6 80 23 4 39.2
18:45 1024 30.24 853 25.19 26.6 79.8 26 5.7 42.2
18:50 1024 30.24 853 25.19 26.4 79.5 23 4.2 39.5
18:55 1024 30.24 853 25.19 26.2 79.1 24 4.1 39.5
19:00 1024 30.24 853 25.19 26.1 78.9 25 4.8 40.6
19:05 1024 30.24 853 25.19 26.1 79 26 5.1 41.2
19:10 1024 30.24 853 25.19 26.3 79.3 26 5.8 42.4
19:15 1024 30.24 853 25.19 26.1 79 24 4 39.3
19:20 1024 30.24 853 25.19 25.8 78.5 28 6.1 43
19:25 1024 30.24 853 25.19 25.7 78.2 23 3.5 38.3
19:30 1024 30.24 853 25.19 25.8 78.4 24 4.2 39.5
19:35 1024 30.24 853 25.19 25.6 78 25 4.5 40
19:40 1024 30.24 853 25.19 25.4 77.7 25 4.3 39.7
19:45 1024 30.24 853 25.19 25.2 77.3 25 4 39.2
19:50 1024 30.24 853 25.19 25.2 77.3 27 4.9 40.8
19:55 1024 30.24 853 25.19 25.1 77.2 25 3.9 39
20:00 1024 30.24 853 25.19 25 77.1 25 3.8 38.8
20:05 1024 30.24 853 25.19 25 77 25 4.1 39.3
20:10 1024 30.24 853 25.19 25 77 24 3.2 37.7
20:15 1024 30.24 853 25.19 25.1 77.1 24 3.4 38.1
20:20 1024 30.24 853 25.19 25 76.9 25 3.9 39
20:25 1024 30.24 853 25.19 25 77.1 24 3.3 37.9
20:30 1024 30.24 853 25.19 25.1 77.1 23 3 37.3
20:35 1024 30.24 853 25.19 25 76.9 25 3.8 38.8
20:40 1024 30.24 853 25.19 24.5 76 26 4.2 39.6
20:45 1024 30.24 853 25.19 24.3 75.7 26 3.7 38.6
20:50 1024 30.24 853 25.19 24.2 75.5 26 3.5 38.3
20:55 1024 30.24 853 25.19 24.6 76.2 25 3.3 38
21:00 1024 30.24 853 25.19 24.5 76.1 25 3.7 38.6
21:05 1024 30.24 853 25.19 24.5 76.2 24 3 37.4
21:10 1024 30.24 853 25.19 24.7 76.5 25 3.6 38.5
21:15 1024 30.24 853 25.19 24.4 75.9 25 3.3 38
21:20 1024 30.24 853 25.19 24.3 75.7 25 3.1 37.6
21:25 1024 30.24 853 25.19 24.1 75.3 26 3.6 38.4
21:30 1024 30.24 854 25.22 23.8 74.8 27 3.8 38.8
21:35 1024 30.24 854 25.22 23.4 74 28 4.3 39.7
21:40 1024 30.24 854 25.22 22.9 73.2 29 4.2 39.6
21:45 1024 30.24 854 25.22 22.8 73 29 4.2 39.6
21:50 1024 30.24 854 25.22 22.7 72.8 30 4.2 39.6
21:55 1024 30.24 854 25.22 22.4 72.4 30 4.2 39.6
22:00 1024 30.24 854 25.22 22.4 72.3 30 4.3 39.8
22:05 1024 30.24 853 25.19 22.2 72 30 4.2 39.5
22:10 1024 30.24 854 25.22 22.2 72 31 4.4 39.9
22:15 1024 30.24 853 25.19 22.2 71.9 30 4.1 39.3
22:20 1024 30.24 853 25.19 22.2 71.9 30 4.2 39.5
22:25 1024 30.24 854 25.22 22 71.6 31 4.3 39.7
22:30 1024 30.24 853 25.19 21.9 71.4 31 4.3 39.7
22:35 1024 30.24 854 25.22 21.8 71.3 31 4.1 39.5
22:40 1024 30.24 854 25.22 21.8 71.3 31 4.3 39.7
22:45 1024 30.24 854 25.22 21.9 71.4 31 4.2 39.5
22:50 1024 30.24 854 25.22 22 71.6 31 4.2 39.5
22:55 1024 30.24 854 25.22 21.9 71.4 31 4.4 39.9
23:00 1024 30.24 854 25.22 21.7 71.1 31 4.2 39.6
23:05 1024 30.24 854 25.22 21.6 70.9 31 4.1 39.5
23:10 1025 30.27 854 25.22 21.7 71.1 32 4.5 40.1
23:15 1025 30.27 854 25.22 21.6 70.8 32 4.3 39.8
23:20 1025 30.27 854 25.22 21.2 70.2 35 5.3 41.5
23:25 1025 30.27 854 25.22 20.9 69.5 33 4.3 39.7
23:30 1025 30.27 854 25.22 20.8 69.5 34 4.5 40.2
23:35 1025 30.27 854 25.22 20.6 69 35 4.6 40.2
23:40 1025 30.27 854 25.22 20.4 68.7 35 4.7 40.5
23:45 1025 30.27 854 25.22 20.2 68.3 37 5.2 41.3
23:50 1025 30.27 854 25.22 20 68 37 4.9 40.8
23:55 1025 30.27 854 25.22 19.8 67.6 37 4.7 40.4
24:00 1025 30.27 854 25.22 19.7 67.5 36 4.5 40.1